sensor_id;sensor_type;location;lat;lon;timestamp;temperature;humidity
3023;DHT22;1521;53.584;9.938;2023-05-10T00:01:48;14.40;99.90
3023;DHT22;1521;53.584;9.938;2023-05-10T00:04:14;14.40;99.90
3023;DHT22;1521;53.584;9.938;2023-05-10T00:06:39;14.30;99.90
3023;DHT22;1521;53.584;9.938;2023-05-10T00:09:05;14.30;99.90
3023;DHT22;1521;53.584;9.938;2023-05-10T00:11:31;14.30;99.90
3023;DHT22;1521;53.584;9.938;2023-05-10T00:13:56;14.30;99.90
3023;DHT22;1521;53.584;9.938;2023-05-10T00:16:22;14.30;99.90
3023;DHT22;1521;53.584;9.938;2023-05-10T00:18:47;14.30;99.90
3023;DHT22;1521;53.584;9.938;2023-05-10T00:21:13;14.20;99.90
3023;DHT22;1521;53.584;9.938;2023-05-10T00:23:39;14.20;99.90
3023;DHT22;1521;53.584;9.938;2023-05-10T00:26:04;14.20;99.90
3023;DHT22;1521;53.584;9.938;2023-05-10T00:28:30;14.10;99.90
3023;DHT22;1521;53.584;9.938;2023-05-10T00:30:55;14.10;99.90
3023;DHT22;1521;53.584;9.938;2023-05-10T00:33:21;14.00;99.90
3023;DHT22;1521;53.584;9.938;2023-05-10T00:35:47;13.90;99.90
3023;DHT22;1521;53.584;9.938;2023-05-10T00:38:12;13.90;99.90
3023;DHT22;1521;53.584;9.938;2023-05-10T00:40:38;13.80;99.90
3023;DHT22;1521;53.584;9.938;2023-05-10T00:43:04;13.90;99.90
3023;DHT22;1521;53.584;9.938;2023-05-10T00:45:31;13.80;99.90
3023;DHT22;1521;53.584;9.938;2023-05-10T00:47:59;13.80;99.90
3023;DHT22;1521;53.584;9.938;2023-05-10T00:50:25;13.70;99.90
3023;DHT22;1521;53.584;9.938;2023-05-10T00:52:51;13.60;99.90
3023;DHT22;1521;53.584;9.938;2023-05-10T00:55:17;13.60;99.90
3023;DHT22;1521;53.584;9.938;2023-05-10T00:57:43;13.60;99.90
3023;DHT22;1521;53.584;9.938;2023-05-10T01:00:09;13.50;99.90
3023;DHT22;1521;53.584;9.938;2023-05-10T01:02:36;13.50;99.90
3023;DHT22;1521;53.584;9.938;2023-05-10T01:05:03;13.50;99.90
3023;DHT22;1521;53.584;9.938;2023-05-10T01:07:29;13.40;99.90
3023;DHT22;1521;53.584;9.938;2023-05-10T01:09:55;13.50;99.90
3023;DHT22;1521;53.584;9.938;2023-05-10T01:12:21;13.40;99.90
3023;DHT22;1521;53.584;9.938;2023-05-10T01:14:47;13.40;99.90
3023;DHT22;1521;53.584;9.938;2023-05-10T01:17:13;13.30;99.90
3023;DHT22;1521;53.584;9.938;2023-05-10T01:19:39;13.30;99.90
3023;DHT22;1521;53.584;9.938;2023-05-10T01:22:25;13.30;99.90
3023;DHT22;1521;53.584;9.938;2023-05-10T01:25:11;13.30;99.90
3023;DHT22;1521;53.584;9.938;2023-05-10T01:28:17;13.20;99.90
3023;DHT22;1521;53.584;9.938;2023-05-10T01:33:39;13.10;99.90
3023;DHT22;1521;53.584;9.938;2023-05-10T01:36:06;13.10;99.90
3023;DHT22;1521;53.584;9.938;2023-05-10T01:39:25;13.10;99.90
3023;DHT22;1521;53.584;9.938;2023-05-10T01:41:57;13.10;99.90
3023;DHT22;1521;53.584;9.938;2023-05-10T01:44:42;13.10;99.90
3023;DHT22;1521;53.584;9.938;2023-05-10T01:49:55;13.00;99.90
3023;DHT22;1521;53.584;9.938;2023-05-10T01:52:32;13.00;99.90
3023;DHT22;1521;53.584;9.938;2023-05-10T01:55:07;12.90;99.90
3023;DHT22;1521;53.584;9.938;2023-05-10T01:57:35;12.90;99.90
3023;DHT22;1521;53.584;9.938;2023-05-10T02:00:03;12.80;99.90
3023;DHT22;1521;53.584;9.938;2023-05-10T02:02:32;12.80;99.90
3023;DHT22;1521;53.584;9.938;2023-05-10T02:04:59;12.80;99.90
3023;DHT22;1521;53.584;9.938;2023-05-10T02:07:27;12.80;99.90
3023;DHT22;1521;53.584;9.938;2023-05-10T02:09:54;12.70;99.90
3023;DHT22;1521;53.584;9.938;2023-05-10T02:12:22;12.60;99.90
3023;DHT22;1521;53.584;9.938;2023-05-10T02:14:51;12.50;99.90
3023;DHT22;1521;53.584;9.938;2023-05-10T02:17:18;12.50;99.90
3023;DHT22;1521;53.584;9.938;2023-05-10T02:19:47;12.40;99.90
3023;DHT22;1521;53.584;9.938;2023-05-10T02:22:13;12.40;99.90
3023;DHT22;1521;53.584;9.938;2023-05-10T02:24:41;12.40;99.90
3023;DHT22;1521;53.584;9.938;2023-05-10T02:27:07;12.30;99.90
3023;DHT22;1521;53.584;9.938;2023-05-10T02:29:35;12.40;99.90
3023;DHT22;1521;53.584;9.938;2023-05-10T02:32:02;12.30;99.90
3023;DHT22;1521;53.584;9.938;2023-05-10T02:34:28;12.40;99.90
3023;DHT22;1521;53.584;9.938;2023-05-10T02:36:55;12.40;99.90
3023;DHT22;1521;53.584;9.938;2023-05-10T02:39:22;12.40;99.90
3023;DHT22;1521;53.584;9.938;2023-05-10T02:41:49;12.40;99.90
3023;DHT22;1521;53.584;9.938;2023-05-10T02:44:18;12.40;99.90
3023;DHT22;1521;53.584;9.938;2023-05-10T02:46:44;12.30;99.90
3023;DHT22;1521;53.584;9.938;2023-05-10T02:49:10;12.30;99.90
3023;DHT22;1521;53.584;9.938;2023-05-10T02:51:39;12.30;99.90
3023;DHT22;1521;53.584;9.938;2023-05-10T02:54:18;12.30;99.90
3023;DHT22;1521;53.584;9.938;2023-05-10T02:57:08;12.20;99.90
3023;DHT22;1521;53.584;9.938;2023-05-10T02:59:35;12.20;99.90
3023;DHT22;1521;53.584;9.938;2023-05-10T03:02:00;12.10;99.90
3023;DHT22;1521;53.584;9.938;2023-05-10T03:04:27;12.20;99.90
3023;DHT22;1521;53.584;9.938;2023-05-10T03:06:52;12.30;99.90
3023;DHT22;1521;53.584;9.938;2023-05-10T03:09:18;12.30;99.90
3023;DHT22;1521;53.584;9.938;2023-05-10T03:12:14;12.30;99.90
3023;DHT22;1521;53.584;9.938;2023-05-10T03:14:55;12.30;99.90
3023;DHT22;1521;53.584;9.938;2023-05-10T03:17:29;12.30;99.90
3023;DHT22;1521;53.584;9.938;2023-05-10T03:19:57;12.20;99.90
3023;DHT22;1521;53.584;9.938;2023-05-10T03:22:31;12.20;99.90
3023;DHT22;1521;53.584;9.938;2023-05-10T03:24:58;12.30;99.90
3023;DHT22;1521;53.584;9.938;2023-05-10T03:27:26;12.30;99.90
3023;DHT22;1521;53.584;9.938;2023-05-10T03:29:53;12.30;99.90
3023;DHT22;1521;53.584;9.938;2023-05-10T03:32:20;12.30;99.90
3023;DHT22;1521;53.584;9.938;2023-05-10T03:34:45;12.30;99.90
3023;DHT22;1521;53.584;9.938;2023-05-10T03:37:11;12.20;99.90
3023;DHT22;1521;53.584;9.938;2023-05-10T03:39:36;12.20;99.90
3023;DHT22;1521;53.584;9.938;2023-05-10T03:42:02;12.30;99.90
3023;DHT22;1521;53.584;9.938;2023-05-10T03:44:28;12.30;99.90
3023;DHT22;1521;53.584;9.938;2023-05-10T03:46:53;12.20;99.90
3023;DHT22;1521;53.584;9.938;2023-05-10T03:49:19;12.20;99.90
3023;DHT22;1521;53.584;9.938;2023-05-10T03:51:44;12.20;99.90
3023;DHT22;1521;53.584;9.938;2023-05-10T03:54:10;12.30;99.90
3023;DHT22;1521;53.584;9.938;2023-05-10T03:56:35;12.30;99.90
3023;DHT22;1521;53.584;9.938;2023-05-10T03:59:01;12.30;99.90
3023;DHT22;1521;53.584;9.938;2023-05-10T04:01:27;12.30;99.90
3023;DHT22;1521;53.584;9.938;2023-05-10T04:03:52;12.30;99.90
3023;DHT22;1521;53.584;9.938;2023-05-10T04:06:18;12.20;99.90
3023;DHT22;1521;53.584;9.938;2023-05-10T04:08:43;12.30;99.90
3023;DHT22;1521;53.584;9.938;2023-05-10T04:11:11;12.30;99.90
3023;DHT22;1521;53.584;9.938;2023-05-10T04:13:37;12.30;99.90
3023;DHT22;1521;53.584;9.938;2023-05-10T04:16:03;12.40;99.90
3023;DHT22;1521;53.584;9.938;2023-05-10T04:18:30;12.40;99.90
3023;DHT22;1521;53.584;9.938;2023-05-10T04:20:56;12.40;99.90
3023;DHT22;1521;53.584;9.938;2023-05-10T04:23:21;12.40;99.90
3023;DHT22;1521;53.584;9.938;2023-05-10T04:25:47;12.50;99.90
3023;DHT22;1521;53.584;9.938;2023-05-10T04:28:12;12.50;99.90
3023;DHT22;1521;53.584;9.938;2023-05-10T04:30:39;12.50;99.90
3023;DHT22;1521;53.584;9.938;2023-05-10T04:33:05;12.60;99.90
3023;DHT22;1521;53.584;9.938;2023-05-10T04:35:31;12.60;99.90
3023;DHT22;1521;53.584;9.938;2023-05-10T04:37:56;12.60;99.90
3023;DHT22;1521;53.584;9.938;2023-05-10T04:40:22;12.60;99.90
3023;DHT22;1521;53.584;9.938;2023-05-10T04:42:48;12.60;99.90
3023;DHT22;1521;53.584;9.938;2023-05-10T04:45:13;12.60;99.90
3023;DHT22;1521;53.584;9.938;2023-05-10T04:47:42;12.70;99.90
3023;DHT22;1521;53.584;9.938;2023-05-10T04:50:07;12.80;99.90
3023;DHT22;1521;53.584;9.938;2023-05-10T04:52:33;12.80;99.90
3023;DHT22;1521;53.584;9.938;2023-05-10T04:54:59;12.80;99.90
3023;DHT22;1521;53.584;9.938;2023-05-10T04:57:24;12.90;99.90
3023;DHT22;1521;53.584;9.938;2023-05-10T04:59:50;13.00;99.90
3023;DHT22;1521;53.584;9.938;2023-05-10T05:02:16;13.00;99.90
3023;DHT22;1521;53.584;9.938;2023-05-10T05:04:42;13.10;99.90
3023;DHT22;1521;53.584;9.938;2023-05-10T05:07:07;13.20;99.90
3023;DHT22;1521;53.584;9.938;2023-05-10T05:09:33;13.30;99.90
3023;DHT22;1521;53.584;9.938;2023-05-10T05:11:58;13.30;99.90
3023;DHT22;1521;53.584;9.938;2023-05-10T05:14:24;13.40;99.90
3023;DHT22;1521;53.584;9.938;2023-05-10T05:16:51;13.50;99.90
3023;DHT22;1521;53.584;9.938;2023-05-10T05:19:17;13.60;99.90
3023;DHT22;1521;53.584;9.938;2023-05-10T05:21:43;13.70;99.90
3023;DHT22;1521;53.584;9.938;2023-05-10T05:24:08;13.80;99.90
3023;DHT22;1521;53.584;9.938;2023-05-10T05:26:35;13.90;99.90
3023;DHT22;1521;53.584;9.938;2023-05-10T05:29:01;14.10;99.90
3023;DHT22;1521;53.584;9.938;2023-05-10T05:31:26;14.10;99.90
3023;DHT22;1521;53.584;9.938;2023-05-10T05:33:52;14.20;99.90
3023;DHT22;1521;53.584;9.938;2023-05-10T05:36:17;14.20;99.90
3023;DHT22;1521;53.584;9.938;2023-05-10T05:38:43;14.30;99.90
3023;DHT22;1521;53.584;9.938;2023-05-10T05:41:09;14.60;99.90
3023;DHT22;1521;53.584;9.938;2023-05-10T05:43:34;14.80;99.90
3023;DHT22;1521;53.584;9.938;2023-05-10T05:46:00;15.00;99.90
3023;DHT22;1521;53.584;9.938;2023-05-10T05:48:26;15.20;99.90
3023;DHT22;1521;53.584;9.938;2023-05-10T05:50:54;15.50;99.90
3023;DHT22;1521;53.584;9.938;2023-05-10T05:53:21;15.50;99.90
3023;DHT22;1521;53.584;9.938;2023-05-10T05:55:57;15.40;99.90
3023;DHT22;1521;53.584;9.938;2023-05-10T05:58:24;15.50;99.90
3023;DHT22;1521;53.584;9.938;2023-05-10T06:00:50;15.70;99.90
3023;DHT22;1521;53.584;9.938;2023-05-10T06:03:17;15.80;99.90
3023;DHT22;1521;53.584;9.938;2023-05-10T06:05:43;15.90;99.90
3023;DHT22;1521;53.584;9.938;2023-05-10T06:08:08;15.90;99.90
3023;DHT22;1521;53.584;9.938;2023-05-10T06:10:35;16.10;99.90
3023;DHT22;1521;53.584;9.938;2023-05-10T06:13:00;16.10;99.90
3023;DHT22;1521;53.584;9.938;2023-05-10T06:15:26;16.20;99.90
3023;DHT22;1521;53.584;9.938;2023-05-10T06:17:52;16.20;99.90
3023;DHT22;1521;53.584;9.938;2023-05-10T06:20:18;16.20;99.90
3023;DHT22;1521;53.584;9.938;2023-05-10T06:22:43;16.20;99.90
3023;DHT22;1521;53.584;9.938;2023-05-10T06:25:09;16.30;99.90
3023;DHT22;1521;53.584;9.938;2023-05-10T06:27:35;16.30;99.90
3023;DHT22;1521;53.584;9.938;2023-05-10T06:30:01;16.10;99.90
3023;DHT22;1521;53.584;9.938;2023-05-10T06:32:28;16.00;99.90
3023;DHT22;1521;53.584;9.938;2023-05-10T06:34:53;16.00;99.90
3023;DHT22;1521;53.584;9.938;2023-05-10T06:37:19;16.20;99.90
3023;DHT22;1521;53.584;9.938;2023-05-10T06:39:44;16.10;99.90
3023;DHT22;1521;53.584;9.938;2023-05-10T06:42:10;16.10;99.90
3023;DHT22;1521;53.584;9.938;2023-05-10T06:44:36;16.00;99.90
3023;DHT22;1521;53.584;9.938;2023-05-10T06:47:01;16.00;99.90
3023;DHT22;1521;53.584;9.938;2023-05-10T06:49:27;16.00;99.90
3023;DHT22;1521;53.584;9.938;2023-05-10T06:51:52;16.00;99.90
3023;DHT22;1521;53.584;9.938;2023-05-10T06:54:18;16.10;99.90
3023;DHT22;1521;53.584;9.938;2023-05-10T06:56:44;16.20;99.90
3023;DHT22;1521;53.584;9.938;2023-05-10T06:59:10;16.40;99.90
3023;DHT22;1521;53.584;9.938;2023-05-10T07:01:35;16.60;99.90
3023;DHT22;1521;53.584;9.938;2023-05-10T07:04:01;17.10;99.90
3023;DHT22;1521;53.584;9.938;2023-05-10T07:06:26;17.50;99.90
3023;DHT22;1521;53.584;9.938;2023-05-10T07:08:52;17.80;99.90
3023;DHT22;1521;53.584;9.938;2023-05-10T07:11:18;18.10;99.90
3023;DHT22;1521;53.584;9.938;2023-05-10T07:13:43;18.40;99.90
3023;DHT22;1521;53.584;9.938;2023-05-10T07:16:11;18.80;99.90
3023;DHT22;1521;53.584;9.938;2023-05-10T07:18:37;19.00;99.90
3023;DHT22;1521;53.584;9.938;2023-05-10T07:21:03;19.30;99.90
3023;DHT22;1521;53.584;9.938;2023-05-10T07:23:28;19.90;99.90
3023;DHT22;1521;53.584;9.938;2023-05-10T07:25:55;20.20;99.90
3023;DHT22;1521;53.584;9.938;2023-05-10T07:28:23;19.80;99.90
3023;DHT22;1521;53.584;9.938;2023-05-10T07:30:49;19.50;99.90
3023;DHT22;1521;53.584;9.938;2023-05-10T07:33:15;19.30;99.90
3023;DHT22;1521;53.584;9.938;2023-05-10T07:35:41;19.10;99.90
3023;DHT22;1521;53.584;9.938;2023-05-10T07:38:07;18.90;99.90
3023;DHT22;1521;53.584;9.938;2023-05-10T07:40:33;18.90;99.90
3023;DHT22;1521;53.584;9.938;2023-05-10T07:42:58;19.10;99.90
3023;DHT22;1521;53.584;9.938;2023-05-10T07:45:26;19.40;99.90
3023;DHT22;1521;53.584;9.938;2023-05-10T07:47:51;19.50;99.90
3023;DHT22;1521;53.584;9.938;2023-05-10T07:50:17;19.50;99.90
3023;DHT22;1521;53.584;9.938;2023-05-10T07:52:43;19.50;99.90
3023;DHT22;1521;53.584;9.938;2023-05-10T07:55:09;19.30;99.90
3023;DHT22;1521;53.584;9.938;2023-05-10T07:57:35;19.20;99.90
3023;DHT22;1521;53.584;9.938;2023-05-10T08:00:00;19.10;99.90
3023;DHT22;1521;53.584;9.938;2023-05-10T08:02:26;18.80;99.90
3023;DHT22;1521;53.584;9.938;2023-05-10T08:04:51;18.40;99.90
3023;DHT22;1521;53.584;9.938;2023-05-10T08:07:18;18.20;99.90
3023;DHT22;1521;53.584;9.938;2023-05-10T08:09:43;18.00;99.90
3023;DHT22;1521;53.584;9.938;2023-05-10T08:12:09;18.10;99.90
3023;DHT22;1521;53.584;9.938;2023-05-10T08:14:35;18.10;99.90
3023;DHT22;1521;53.584;9.938;2023-05-10T08:17:02;18.20;99.90
3023;DHT22;1521;53.584;9.938;2023-05-10T08:19:28;18.10;99.90
3023;DHT22;1521;53.584;9.938;2023-05-10T08:21:54;18.10;99.90
3023;DHT22;1521;53.584;9.938;2023-05-10T08:24:21;18.00;99.90
3023;DHT22;1521;53.584;9.938;2023-05-10T08:26:47;18.00;99.90
3023;DHT22;1521;53.584;9.938;2023-05-10T08:29:13;17.90;99.90
3023;DHT22;1521;53.584;9.938;2023-05-10T08:31:39;18.10;99.90
3023;DHT22;1521;53.584;9.938;2023-05-10T08:34:04;18.30;99.90
3023;DHT22;1521;53.584;9.938;2023-05-10T08:36:30;18.40;99.90
3023;DHT22;1521;53.584;9.938;2023-05-10T08:38:57;18.60;99.90
3023;DHT22;1521;53.584;9.938;2023-05-10T08:41:23;18.90;99.90
3023;DHT22;1521;53.584;9.938;2023-05-10T08:43:51;18.90;99.90
3023;DHT22;1521;53.584;9.938;2023-05-10T08:46:18;18.80;99.90
3023;DHT22;1521;53.584;9.938;2023-05-10T08:48:45;18.90;99.90
3023;DHT22;1521;53.584;9.938;2023-05-10T08:51:14;18.90;99.90
3023;DHT22;1521;53.584;9.938;2023-05-10T08:53:41;19.00;99.90
3023;DHT22;1521;53.584;9.938;2023-05-10T08:56:07;19.00;99.90
3023;DHT22;1521;53.584;9.938;2023-05-10T08:58:33;19.20;99.90
3023;DHT22;1521;53.584;9.938;2023-05-10T09:00:59;19.50;99.90
3023;DHT22;1521;53.584;9.938;2023-05-10T09:03:26;19.60;99.90
3023;DHT22;1521;53.584;9.938;2023-05-10T09:05:51;19.50;99.90
3023;DHT22;1521;53.584;9.938;2023-05-10T09:08:17;19.40;99.90
3023;DHT22;1521;53.584;9.938;2023-05-10T09:10:44;19.00;99.90
3023;DHT22;1521;53.584;9.938;2023-05-10T09:13:14;18.90;99.90
3023;DHT22;1521;53.584;9.938;2023-05-10T09:15:40;19.00;99.90
3023;DHT22;1521;53.584;9.938;2023-05-10T09:18:06;19.10;99.90
3023;DHT22;1521;53.584;9.938;2023-05-10T09:20:31;19.10;99.90
3023;DHT22;1521;53.584;9.938;2023-05-10T09:22:57;18.90;99.90
3023;DHT22;1521;53.584;9.938;2023-05-10T09:25:22;18.70;99.90
3023;DHT22;1521;53.584;9.938;2023-05-10T09:27:48;18.40;99.90
3023;DHT22;1521;53.584;9.938;2023-05-10T09:30:28;18.30;99.90
3023;DHT22;1521;53.584;9.938;2023-05-10T09:32:54;18.20;99.90
3023;DHT22;1521;53.584;9.938;2023-05-10T09:35:23;18.20;99.90
3023;DHT22;1521;53.584;9.938;2023-05-10T09:37:52;18.30;99.90
3023;DHT22;1521;53.584;9.938;2023-05-10T09:40:23;18.30;99.90
3023;DHT22;1521;53.584;9.938;2023-05-10T09:45:25;17.70;99.90
3023;DHT22;1521;53.584;9.938;2023-05-10T09:47:51;17.30;99.90
3023;DHT22;1521;53.584;9.938;2023-05-10T09:50:17;17.00;99.90
3023;DHT22;1521;53.584;9.938;2023-05-10T09:52:56;16.50;99.90
3023;DHT22;1521;53.584;9.938;2023-05-10T09:55:37;16.30;99.90
3023;DHT22;1521;53.584;9.938;2023-05-10T09:58:03;16.00;99.90
3023;DHT22;1521;53.584;9.938;2023-05-10T10:00:35;15.90;99.90
3023;DHT22;1521;53.584;9.938;2023-05-10T10:03:01;15.80;99.90
3023;DHT22;1521;53.584;9.938;2023-05-10T10:05:31;15.60;99.90
3023;DHT22;1521;53.584;9.938;2023-05-10T10:07:58;15.50;99.90
3023;DHT22;1521;53.584;9.938;2023-05-10T10:10:25;15.30;99.90
3023;DHT22;1521;53.584;9.938;2023-05-10T10:12:51;15.20;99.90
3023;DHT22;1521;53.584;9.938;2023-05-10T10:15:18;15.10;1.00
3023;DHT22;1521;53.584;9.938;2023-05-10T10:17:44;15.00;1.00
3023;DHT22;1521;53.584;9.938;2023-05-10T10:20:10;14.90;1.00
3023;DHT22;1521;53.584;9.938;2023-05-10T10:22:37;14.90;1.00
3023;DHT22;1521;53.584;9.938;2023-05-10T10:25:04;14.80;1.00
3023;DHT22;1521;53.584;9.938;2023-05-10T10:30:27;14.80;1.00
3023;DHT22;1521;53.584;9.938;2023-05-10T10:33:18;14.80;1.00
3023;DHT22;1521;53.584;9.938;2023-05-10T10:35:52;14.70;1.00
3023;DHT22;1521;53.584;9.938;2023-05-10T10:38:18;14.70;1.00
3023;DHT22;1521;53.584;9.938;2023-05-10T10:40:44;14.80;1.00
3023;DHT22;1521;53.584;9.938;2023-05-10T10:43:26;14.90;1.00
3023;DHT22;1521;53.584;9.938;2023-05-10T10:46:13;14.90;1.00
3023;DHT22;1521;53.584;9.938;2023-05-10T10:48:40;15.10;1.00
3023;DHT22;1521;53.584;9.938;2023-05-10T10:51:07;15.40;1.00
3023;DHT22;1521;53.584;9.938;2023-05-10T10:53:32;15.50;1.00
3023;DHT22;1521;53.584;9.938;2023-05-10T10:56:05;15.50;1.00
3023;DHT22;1521;53.584;9.938;2023-05-10T10:58:33;15.60;1.00
3023;DHT22;1521;53.584;9.938;2023-05-10T11:01:12;15.60;1.00
3023;DHT22;1521;53.584;9.938;2023-05-10T11:03:38;15.70;1.00
3023;DHT22;1521;53.584;9.938;2023-05-10T11:06:03;15.60;1.00
3023;DHT22;1521;53.584;9.938;2023-05-10T11:08:31;15.50;1.00
3023;DHT22;1521;53.584;9.938;2023-05-10T11:13:33;15.50;1.00
3023;DHT22;1521;53.584;9.938;2023-05-10T11:16:16;15.40;1.00
3023;DHT22;1521;53.584;9.938;2023-05-10T11:21:18;15.50;1.00
3023;DHT22;1521;53.584;9.938;2023-05-10T11:23:49;15.50;1.00
3023;DHT22;1521;53.584;9.938;2023-05-10T11:26:16;15.60;1.00
3023;DHT22;1521;53.584;9.938;2023-05-10T11:28:45;15.50;1.00
3023;DHT22;1521;53.584;9.938;2023-05-10T11:31:18;15.40;1.00
3023;DHT22;1521;53.584;9.938;2023-05-10T11:36:19;15.40;1.00
3023;DHT22;1521;53.584;9.938;2023-05-10T11:38:45;15.40;1.00
3023;DHT22;1521;53.584;9.938;2023-05-10T11:41:11;15.30;1.00
3023;DHT22;1521;53.584;9.938;2023-05-10T11:43:41;15.30;1.00
3023;DHT22;1521;53.584;9.938;2023-05-10T11:46:12;15.30;1.00
3023;DHT22;1521;53.584;9.938;2023-05-10T11:48:41;15.30;1.00
3023;DHT22;1521;53.584;9.938;2023-05-10T11:51:07;15.30;1.00
3023;DHT22;1521;53.584;9.938;2023-05-10T11:53:33;15.40;1.00
3023;DHT22;1521;53.584;9.938;2023-05-10T11:56:06;15.40;1.00
3023;DHT22;1521;53.584;9.938;2023-05-10T11:58:33;15.30;4.00
3023;DHT22;1521;53.584;9.938;2023-05-10T12:00:59;15.30;1.00
3023;DHT22;1521;53.584;9.938;2023-05-10T12:03:25;15.30;1.00
3023;DHT22;1521;53.584;9.938;2023-05-10T12:05:51;15.30;1.00
3023;DHT22;1521;53.584;9.938;2023-05-10T12:08:23;15.20;41.60
3023;DHT22;1521;53.584;9.938;2023-05-10T12:10:50;15.30;96.90
3023;DHT22;1521;53.584;9.938;2023-05-10T12:13:17;15.40;99.90
3023;DHT22;1521;53.584;9.938;2023-05-10T12:15:43;15.50;99.90
3023;DHT22;1521;53.584;9.938;2023-05-10T12:18:12;15.70;99.90
3023;DHT22;1521;53.584;9.938;2023-05-10T12:20:39;15.70;51.30
3023;DHT22;1521;53.584;9.938;2023-05-10T12:23:05;15.70;73.30
3023;DHT22;1521;53.584;9.938;2023-05-10T12:25:36;15.80;14.70
3023;DHT22;1521;53.584;9.938;2023-05-10T12:28:06;15.70;9.10
3023;DHT22;1521;53.584;9.938;2023-05-10T12:30:33;15.50;5.10
3023;DHT22;1521;53.584;9.938;2023-05-10T12:33:08;15.50;80.70
3023;DHT22;1521;53.584;9.938;2023-05-10T12:35:52;15.60;99.90
3023;DHT22;1521;53.584;9.938;2023-05-10T12:38:35;15.80;99.90
3023;DHT22;1521;53.584;9.938;2023-05-10T12:41:05;16.10;99.90
3023;DHT22;1521;53.584;9.938;2023-05-10T12:43:31;16.10;61.20
3023;DHT22;1521;53.584;9.938;2023-05-10T12:45:57;16.10;63.60
3023;DHT22;1521;53.584;9.938;2023-05-10T12:48:24;16.20;99.90
3023;DHT22;1521;53.584;9.938;2023-05-10T12:50:50;16.30;99.90
3023;DHT22;1521;53.584;9.938;2023-05-10T12:53:16;16.50;99.90
3023;DHT22;1521;53.584;9.938;2023-05-10T12:55:45;16.70;99.90
3023;DHT22;1521;53.584;9.938;2023-05-10T12:58:10;17.00;43.30
3023;DHT22;1521;53.584;9.938;2023-05-10T13:00:36;17.20;1.00
3023;DHT22;1521;53.584;9.938;2023-05-10T13:03:04;17.20;1.00
3023;DHT22;1521;53.584;9.938;2023-05-10T13:05:32;17.40;1.00
3023;DHT22;1521;53.584;9.938;2023-05-10T13:07:57;17.60;1.00
3023;DHT22;1521;53.584;9.938;2023-05-10T13:10:23;17.60;1.00
3023;DHT22;1521;53.584;9.938;2023-05-10T13:12:49;17.70;1.00
3023;DHT22;1521;53.584;9.938;2023-05-10T13:15:14;17.80;1.00
3023;DHT22;1521;53.584;9.938;2023-05-10T13:17:40;17.70;1.00
3023;DHT22;1521;53.584;9.938;2023-05-10T13:20:08;17.80;1.00
3023;DHT22;1521;53.584;9.938;2023-05-10T13:22:35;18.00;1.00
3023;DHT22;1521;53.584;9.938;2023-05-10T13:25:01;18.10;1.00
3023;DHT22;1521;53.584;9.938;2023-05-10T13:27:27;18.30;1.00
3023;DHT22;1521;53.584;9.938;2023-05-10T13:29:53;18.30;1.00
3023;DHT22;1521;53.584;9.938;2023-05-10T13:32:18;18.20;1.00
3023;DHT22;1521;53.584;9.938;2023-05-10T13:34:44;18.10;1.00
3023;DHT22;1521;53.584;9.938;2023-05-10T13:37:09;18.20;1.00
3023;DHT22;1521;53.584;9.938;2023-05-10T13:39:35;18.20;1.00
3023;DHT22;1521;53.584;9.938;2023-05-10T13:42:03;18.10;1.00
3023;DHT22;1521;53.584;9.938;2023-05-10T13:44:28;18.10;1.00
3023;DHT22;1521;53.584;9.938;2023-05-10T13:46:54;18.00;1.00
3023;DHT22;1521;53.584;9.938;2023-05-10T13:49:20;17.90;1.00
3023;DHT22;1521;53.584;9.938;2023-05-10T13:51:47;17.80;1.00
3023;DHT22;1521;53.584;9.938;2023-05-10T13:54:13;17.60;1.00
3023;DHT22;1521;53.584;9.938;2023-05-10T13:56:39;17.40;1.00
3023;DHT22;1521;53.584;9.938;2023-05-10T13:59:04;17.30;1.00
3023;DHT22;1521;53.584;9.938;2023-05-10T14:01:30;17.40;1.00
3023;DHT22;1521;53.584;9.938;2023-05-10T14:03:56;17.60;1.00
3023;DHT22;1521;53.584;9.938;2023-05-10T14:06:21;17.80;1.00
3023;DHT22;1521;53.584;9.938;2023-05-10T14:08:47;17.90;1.00
3023;DHT22;1521;53.584;9.938;2023-05-10T14:11:13;18.20;1.00
3023;DHT22;1521;53.584;9.938;2023-05-10T14:13:38;18.40;1.00
3023;DHT22;1521;53.584;9.938;2023-05-10T14:16:04;18.60;1.00
3023;DHT22;1521;53.584;9.938;2023-05-10T14:18:30;18.60;1.00
3023;DHT22;1521;53.584;9.938;2023-05-10T14:20:56;18.70;1.00
3023;DHT22;1521;53.584;9.938;2023-05-10T14:23:22;18.80;1.00
3023;DHT22;1521;53.584;9.938;2023-05-10T14:25:54;18.70;1.00
3023;DHT22;1521;53.584;9.938;2023-05-10T14:28:20;18.70;1.00
3023;DHT22;1521;53.584;9.938;2023-05-10T14:30:46;18.70;1.00
3023;DHT22;1521;53.584;9.938;2023-05-10T14:33:12;18.60;1.00
3023;DHT22;1521;53.584;9.938;2023-05-10T14:35:38;18.60;1.00
3023;DHT22;1521;53.584;9.938;2023-05-10T14:38:03;18.50;1.00
3023;DHT22;1521;53.584;9.938;2023-05-10T14:40:29;18.30;1.00
3023;DHT22;1521;53.584;9.938;2023-05-10T14:42:55;18.10;1.00
3023;DHT22;1521;53.584;9.938;2023-05-10T14:45:21;18.00;1.00
3023;DHT22;1521;53.584;9.938;2023-05-10T14:47:47;18.10;1.00
3023;DHT22;1521;53.584;9.938;2023-05-10T14:50:13;18.00;1.00
3023;DHT22;1521;53.584;9.938;2023-05-10T14:52:39;17.90;1.00
3023;DHT22;1521;53.584;9.938;2023-05-10T14:55:05;17.90;1.00
3023;DHT22;1521;53.584;9.938;2023-05-10T14:57:31;17.90;1.00
3023;DHT22;1521;53.584;9.938;2023-05-10T14:59:57;17.80;1.00
3023;DHT22;1521;53.584;9.938;2023-05-10T15:02:23;17.70;1.00
3023;DHT22;1521;53.584;9.938;2023-05-10T15:04:48;17.50;1.00
3023;DHT22;1521;53.584;9.938;2023-05-10T15:07:14;17.40;1.00
3023;DHT22;1521;53.584;9.938;2023-05-10T15:09:41;17.30;1.00
3023;DHT22;1521;53.584;9.938;2023-05-10T15:12:07;17.30;1.00
3023;DHT22;1521;53.584;9.938;2023-05-10T15:14:32;17.20;1.00
3023;DHT22;1521;53.584;9.938;2023-05-10T15:16:59;17.10;1.00
3023;DHT22;1521;53.584;9.938;2023-05-10T15:19:24;17.30;1.00
3023;DHT22;1521;53.584;9.938;2023-05-10T15:21:50;17.50;1.00
3023;DHT22;1521;53.584;9.938;2023-05-10T15:24:16;17.70;1.00
3023;DHT22;1521;53.584;9.938;2023-05-10T15:26:41;17.80;1.00
3023;DHT22;1521;53.584;9.938;2023-05-10T15:29:07;17.80;1.00
3023;DHT22;1521;53.584;9.938;2023-05-10T15:31:33;17.80;1.00
3023;DHT22;1521;53.584;9.938;2023-05-10T15:34:01;17.70;1.00
3023;DHT22;1521;53.584;9.938;2023-05-10T15:36:27;17.60;1.00
3023;DHT22;1521;53.584;9.938;2023-05-10T15:38:55;17.60;1.00
3023;DHT22;1521;53.584;9.938;2023-05-10T15:41:21;17.60;1.00
3023;DHT22;1521;53.584;9.938;2023-05-10T15:43:47;17.50;1.00
3023;DHT22;1521;53.584;9.938;2023-05-10T15:46:12;17.40;1.00
3023;DHT22;1521;53.584;9.938;2023-05-10T15:48:38;17.30;1.00
3023;DHT22;1521;53.584;9.938;2023-05-10T15:51:04;17.20;1.00
3023;DHT22;1521;53.584;9.938;2023-05-10T15:53:30;17.10;1.00
3023;DHT22;1521;53.584;9.938;2023-05-10T15:55:56;17.00;1.00
3023;DHT22;1521;53.584;9.938;2023-05-10T15:58:21;16.80;1.00
3023;DHT22;1521;53.584;9.938;2023-05-10T16:00:47;16.70;1.00
3023;DHT22;1521;53.584;9.938;2023-05-10T16:03:12;16.60;1.00
3023;DHT22;1521;53.584;9.938;2023-05-10T16:05:38;16.50;99.90
3023;DHT22;1521;53.584;9.938;2023-05-10T16:08:04;16.30;99.90
3023;DHT22;1521;53.584;9.938;2023-05-10T16:10:32;16.10;1.00
3023;DHT22;1521;53.584;9.938;2023-05-10T16:12:58;15.90;99.90
3023;DHT22;1521;53.584;9.938;2023-05-10T16:15:24;15.70;1.00
3023;DHT22;1521;53.584;9.938;2023-05-10T16:17:50;15.70;1.00
3023;DHT22;1521;53.584;9.938;2023-05-10T16:20:16;15.70;1.00
3023;DHT22;1521;53.584;9.938;2023-05-10T16:22:42;15.70;99.90
3023;DHT22;1521;53.584;9.938;2023-05-10T16:25:09;15.70;98.30
3023;DHT22;1521;53.584;9.938;2023-05-10T16:27:35;15.80;9.10